sensor_id;sensor_type;location;lat;lon;timestamp;pressure;altitude;pressure_sealevel;temperature;humidity
22025;BME280;11176;51.448;6.650;2023-01-31T00:01:22;45674.03;;;-141.29;100.00
22025;BME280;11176;51.448;6.650;2023-01-31T00:03:58;45686.00;;;-141.29;100.00
22025;BME280;11176;51.448;6.650;2023-01-31T00:06:29;45680.03;;;-141.29;100.00
22025;BME280;11176;51.448;6.650;2023-01-31T00:08:57;45670.03;;;-141.29;100.00
22025;BME280;11176;51.448;6.650;2023-01-31T00:11:26;45668.03;;;-141.29;100.00
22025;BME280;11176;51.448;6.650;2023-01-31T00:13:54;45658.03;;;-141.29;100.00
22025;BME280;11176;51.448;6.650;2023-01-31T00:16:21;45696.00;;;-141.29;100.00
22025;BME280;11176;51.448;6.650;2023-01-31T00:18:48;45686.00;;;-141.29;100.00
22025;BME280;11176;51.448;6.650;2023-01-31T00:21:20;45678.03;;;-141.29;100.00
22025;BME280;11176;51.448;6.650;2023-01-31T00:23:48;45674.03;;;-141.29;100.00
22025;BME280;11176;51.448;6.650;2023-01-31T00:26:33;45674.03;;;-141.29;99.96
22025;BME280;11176;51.448;6.650;2023-01-31T00:29:02;45682.00;;;-141.29;100.00
22025;BME280;11176;51.448;6.650;2023-01-31T00:31:31;45686.00;;;-141.29;99.54
22025;BME280;11176;51.448;6.650;2023-01-31T00:33:58;45686.00;;;-141.29;99.48
22025;BME280;11176;51.448;6.650;2023-01-31T00:36:31;45664.03;;;-141.29;99.46
22025;BME280;11176;51.448;6.650;2023-01-31T00:38:59;45690.00;;;-141.29;99.48
22025;BME280;11176;51.448;6.650;2023-01-31T00:41:29;45674.03;;;-141.29;98.85
22025;BME280;11176;51.448;6.650;2023-01-31T00:43:56;45682.00;;;-141.29;99.25
22025;BME280;11176;51.448;6.650;2023-01-31T00:46:22;45686.00;;;-141.29;99.34
22025;BME280;11176;51.448;6.650;2023-01-31T00:48:50;45694.00;;;-141.29;99.66
22025;BME280;11176;51.448;6.650;2023-01-31T00:51:18;45692.00;;;-141.29;99.50
22025;BME280;11176;51.448;6.650;2023-01-31T00:53:45;45680.03;;;-141.29;99.51
22025;BME280;11176;51.448;6.650;2023-01-31T00:56:15;45690.00;;;-141.29;99.60
22025;BME280;11176;51.448;6.650;2023-01-31T00:58:42;45694.00;;;-141.29;99.13
22025;BME280;11176;51.448;6.650;2023-01-31T01:03:37;45686.00;;;-141.29;99.32
22025;BME280;11176;51.448;6.650;2023-01-31T01:06:05;45702.00;;;-141.29;99.45
22025;BME280;11176;51.448;6.650;2023-01-31T01:08:32;45706.00;;;-141.29;99.87
22025;BME280;11176;51.448;6.650;2023-01-31T01:11:08;45700.00;;;-141.29;99.47
22025;BME280;11176;51.448;6.650;2023-01-31T01:13:35;45686.00;;;-141.29;99.55
22025;BME280;11176;51.448;6.650;2023-01-31T01:16:07;45714.00;;;-141.29;99.85
22025;BME280;11176;51.448;6.650;2023-01-31T01:18:35;45694.00;;;-141.29;99.78
22025;BME280;11176;51.448;6.650;2023-01-31T01:21:05;45680.03;;;-141.29;99.50
22025;BME280;11176;51.448;6.650;2023-01-31T01:23:31;45704.00;;;-141.29;99.18
22025;BME280;11176;51.448;6.650;2023-01-31T01:25:58;45698.00;;;-141.29;99.11
22025;BME280;11176;51.448;6.650;2023-01-31T01:28:26;45694.00;;;-141.29;99.85
22025;BME280;11176;51.448;6.650;2023-01-31T01:30:55;45702.00;;;-141.29;100.00
22025;BME280;11176;51.448;6.650;2023-01-31T01:33:22;45690.00;;;-141.29;100.00
22025;BME280;11176;51.448;6.650;2023-01-31T01:35:48;45678.03;;;-141.29;100.00
22025;BME280;11176;51.448;6.650;2023-01-31T01:38:14;45684.00;;;-141.29;99.70
22025;BME280;11176;51.448;6.650;2023-01-31T01:40:41;45674.03;;;-141.29;99.97
22025;BME280;11176;51.448;6.650;2023-01-31T01:43:10;45702.00;;;-141.29;99.45
22025;BME280;11176;51.448;6.650;2023-01-31T01:45:37;45696.00;;;-141.29;99.59
22025;BME280;11176;51.448;6.650;2023-01-31T01:48:05;45708.00;;;-141.29;99.64
22025;BME280;11176;51.448;6.650;2023-01-31T01:50:41;45704.00;;;-141.29;99.84
22025;BME280;11176;51.448;6.650;2023-01-31T01:53:18;45674.03;;;-141.29;98.95
22025;BME280;11176;51.448;6.650;2023-01-31T01:55:54;45682.00;;;-141.29;99.22
22025;BME280;11176;51.448;6.650;2023-01-31T01:58:35;45704.00;;;-141.29;99.01
22025;BME280;11176;51.448;6.650;2023-01-31T02:01:05;45714.00;;;-141.29;98.74
22025;BME280;11176;51.448;6.650;2023-01-31T02:03:32;45686.00;;;-141.29;98.96
22025;BME280;11176;51.448;6.650;2023-01-31T02:06:04;45678.03;;;-141.29;98.89
22025;BME280;11176;51.448;6.650;2023-01-31T02:08:35;45702.00;;;-141.29;99.03
22025;BME280;11176;51.448;6.650;2023-01-31T02:13:51;45714.00;;;-141.29;98.68
22025;BME280;11176;51.448;6.650;2023-01-31T02:16:18;45702.00;;;-141.29;99.37
22025;BME280;11176;51.448;6.650;2023-01-31T02:18:46;45712.00;;;-141.29;99.55
22025;BME280;11176;51.448;6.650;2023-01-31T02:32:37;45712.00;;;-141.29;99.51
22025;BME280;11176;51.448;6.650;2023-01-31T02:37:59;45716.00;;;-141.29;99.99
22025;BME280;11176;51.448;6.650;2023-01-31T02:41:00;45706.00;;;-141.29;100.00
22025;BME280;11176;51.448;6.650;2023-01-31T02:43:40;45729.97;;;-141.29;100.00
22025;BME280;11176;51.448;6.650;2023-01-31T02:46:35;45700.00;;;-141.29;99.57
22025;BME280;11176;51.448;6.650;2023-01-31T02:49:14;45706.00;;;-141.29;99.90
22025;BME280;11176;51.448;6.650;2023-01-31T02:57:50;45710.00;;;-141.29;100.00
22025;BME280;11176;51.448;6.650;2023-01-31T03:00:18;45706.00;;;-141.29;100.00
22025;BME280;11176;51.448;6.650;2023-01-31T03:02:46;45722.00;;;-141.29;100.00
22025;BME280;11176;51.448;6.650;2023-01-31T03:05:17;45725.97;;;-141.29;100.00
22025;BME280;11176;51.448;6.650;2023-01-31T03:07:47;45729.97;;;-141.29;100.00
22025;BME280;11176;51.448;6.650;2023-01-31T03:16:16;45718.00;;;-141.29;100.00
22025;BME280;11176;51.448;6.650;2023-01-31T03:19:18;45725.97;;;-141.29;100.00
22025;BME280;11176;51.448;6.650;2023-01-31T03:22:04;45722.00;;;-141.29;100.00
22025;BME280;11176;51.448;6.650;2023-01-31T03:24:32;45727.97;;;-141.29;100.00
22025;BME280;11176;51.448;6.650;2023-01-31T03:27:00;45710.00;;;-141.29;100.00
22025;BME280;11176;51.448;6.650;2023-01-31T03:29:33;45718.00;;;-141.29;100.00
22025;BME280;11176;51.448;6.650;2023-01-31T03:32:07;45714.00;;;-141.29;100.00
22025;BME280;11176;51.448;6.650;2023-01-31T03:34:37;45733.97;;;-141.29;100.00
22025;BME280;11176;51.448;6.650;2023-01-31T03:37:11;45710.00;;;-141.29;100.00
22025;BME280;11176;51.448;6.650;2023-01-31T03:42:44;45712.00;;;-141.29;100.00
22025;BME280;11176;51.448;6.650;2023-01-31T03:45:18;45722.00;;;-141.29;100.00
22025;BME280;11176;51.448;6.650;2023-01-31T03:47:49;45706.00;;;-141.29;100.00
22025;BME280;11176;51.448;6.650;2023-01-31T03:50:30;45714.00;;;-141.29;100.00
22025;BME280;11176;51.448;6.650;2023-01-31T03:53:10;45716.00;;;-141.29;100.00
22025;BME280;11176;51.448;6.650;2023-01-31T03:55:49;45722.00;;;-141.29;100.00
22025;BME280;11176;51.448;6.650;2023-01-31T03:58:21;45706.00;;;-141.29;100.00
22025;BME280;11176;51.448;6.650;2023-01-31T04:00:51;45698.00;;;-141.29;100.00
22025;BME280;11176;51.448;6.650;2023-01-31T04:03:24;45737.97;;;-141.29;100.00
22025;BME280;11176;51.448;6.650;2023-01-31T04:05:53;45718.00;;;-141.29;100.00
22025;BME280;11176;51.448;6.650;2023-01-31T04:08:20;45741.97;;;-141.29;100.00
22025;BME280;11176;51.448;6.650;2023-01-31T04:10:57;45700.00;;;-141.29;100.00
22025;BME280;11176;51.448;6.650;2023-01-31T04:13:24;45706.00;;;-141.29;100.00
22025;BME280;11176;51.448;6.650;2023-01-31T04:15:51;45704.00;;;-141.29;100.00
22025;BME280;11176;51.448;6.650;2023-01-31T04:18:17;45704.00;;;-141.29;100.00
22025;BME280;11176;51.448;6.650;2023-01-31T04:20:44;45716.00;;;-141.29;100.00
22025;BME280;11176;51.448;6.650;2023-01-31T04:23:10;45704.00;;;-141.29;100.00
22025;BME280;11176;51.448;6.650;2023-01-31T04:25:37;45688.00;;;-141.29;100.00
22025;BME280;11176;51.448;6.650;2023-01-31T04:28:03;45694.00;;;-141.29;100.00
22025;BME280;11176;51.448;6.650;2023-01-31T04:30:30;45694.00;;;-141.29;100.00
22025;BME280;11176;51.448;6.650;2023-01-31T04:32:56;45733.97;;;-141.29;100.00
22025;BME280;11176;51.448;6.650;2023-01-31T04:35:22;45700.00;;;-141.29;100.00
22025;BME280;11176;51.448;6.650;2023-01-31T04:37:49;45729.97;;;-141.29;100.00
22025;BME280;11176;51.448;6.650;2023-01-31T04:40:15;45725.97;;;-141.29;100.00
22025;BME280;11176;51.448;6.650;2023-01-31T04:42:42;45686.00;;;-141.29;100.00
22025;BME280;11176;51.448;6.650;2023-01-31T04:45:09;45714.00;;;-141.29;100.00
22025;BME280;11176;51.448;6.650;2023-01-31T04:47:36;45702.00;;;-141.29;100.00
22025;BME280;11176;51.448;6.650;2023-01-31T04:50:03;45708.00;;;-141.29;100.00
22025;BME280;11176;51.448;6.650;2023-01-31T04:52:29;45688.00;;;-141.29;100.00
22025;BME280;11176;51.448;6.650;2023-01-31T04:54:57;45688.00;;;-141.29;100.00
22025;BME280;11176;51.448;6.650;2023-01-31T04:57:23;45712.00;;;-141.29;100.00
22025;BME280;11176;51.448;6.650;2023-01-31T04:59:50;45706.00;;;-141.29;100.00
22025;BME280;11176;51.448;6.650;2023-01-31T05:02:17;45690.00;;;-141.29;100.00
22025;BME280;11176;51.448;6.650;2023-01-31T05:04:44;45710.00;;;-141.29;100.00
22025;BME280;11176;51.448;6.650;2023-01-31T05:07:10;45714.00;;;-141.29;100.00
22025;BME280;11176;51.448;6.650;2023-01-31T05:09:36;45682.00;;;-141.29;100.00
22025;BME280;11176;51.448;6.650;2023-01-31T05:12:03;45714.00;;;-141.29;100.00
22025;BME280;11176;51.448;6.650;2023-01-31T05:14:30;45718.00;;;-141.29;100.00
22025;BME280;11176;51.448;6.650;2023-01-31T05:16:58;45704.00;;;-141.29;100.00
22025;BME280;11176;51.448;6.650;2023-01-31T05:19:24;45702.00;;;-141.29;100.00
22025;BME280;11176;51.448;6.650;2023-01-31T05:21:50;45702.00;;;-141.29;100.00
22025;BME280;11176;51.448;6.650;2023-01-31T05:24:21;45708.00;;;-141.29;100.00
22025;BME280;11176;51.448;6.650;2023-01-31T05:26:47;45690.00;;;-141.29;100.00
22025;BME280;11176;51.448;6.650;2023-01-31T05:29:16;45702.00;;;-141.29;100.00
22025;BME280;11176;51.448;6.650;2023-01-31T05:31:44;45690.00;;;-141.29;100.00
22025;BME280;11176;51.448;6.650;2023-01-31T05:34:10;45708.00;;;-141.29;100.00
22025;BME280;11176;51.448;6.650;2023-01-31T05:36:41;45682.00;;;-141.29;100.00
22025;BME280;11176;51.448;6.650;2023-01-31T05:39:08;45714.00;;;-141.29;100.00
22025;BME280;11176;51.448;6.650;2023-01-31T05:41:35;45690.00;;;-141.29;100.00
22025;BME280;11176;51.448;6.650;2023-01-31T05:44:01;45694.00;;;-141.29;100.00
22025;BME280;11176;51.448;6.650;2023-01-31T05:46:28;45702.00;;;-141.29;100.00
22025;BME280;11176;51.448;6.650;2023-01-31T05:48:55;45690.00;;;-141.29;100.00
22025;BME280;11176;51.448;6.650;2023-01-31T05:51:21;45698.00;;;-141.29;100.00
22025;BME280;11176;51.448;6.650;2023-01-31T05:53:47;45708.00;;;-141.29;100.00
22025;BME280;11176;51.448;6.650;2023-01-31T05:56:14;45714.00;;;-141.29;100.00
22025;BME280;11176;51.448;6.650;2023-01-31T05:58:42;45698.00;;;-141.29;100.00
22025;BME280;11176;51.448;6.650;2023-01-31T06:01:09;45696.00;;;-141.29;100.00
22025;BME280;11176;51.448;6.650;2023-01-31T06:03:35;45710.00;;;-141.29;100.00
22025;BME280;11176;51.448;6.650;2023-01-31T06:06:02;45714.00;;;-141.29;100.00
22025;BME280;11176;51.448;6.650;2023-01-31T06:08:30;45686.00;;;-141.29;100.00
22025;BME280;11176;51.448;6.650;2023-01-31T06:11:00;45714.00;;;-141.29;100.00
22025;BME280;11176;51.448;6.650;2023-01-31T06:13:27;45678.03;;;-141.29;100.00
22025;BME280;11176;51.448;6.650;2023-01-31T06:15:54;45694.00;;;-141.29;100.00
22025;BME280;11176;51.448;6.650;2023-01-31T06:18:20;45710.00;;;-141.29;100.00
22025;BME280;11176;51.448;6.650;2023-01-31T06:20:47;45698.00;;;-141.29;100.00
22025;BME280;11176;51.448;6.650;2023-01-31T06:23:13;45698.00;;;-141.29;100.00
22025;BME280;11176;51.448;6.650;2023-01-31T06:25:39;45680.03;;;-141.29;100.00
22025;BME280;11176;51.448;6.650;2023-01-31T06:28:06;45696.00;;;-141.29;100.00
22025;BME280;11176;51.448;6.650;2023-01-31T06:30:32;45690.00;;;-141.29;100.00
22025;BME280;11176;51.448;6.650;2023-01-31T06:33:00;45682.00;;;-141.29;100.00
22025;BME280;11176;51.448;6.650;2023-01-31T06:35:27;45690.00;;;-141.29;100.00
22025;BME280;11176;51.448;6.650;2023-01-31T06:37:54;45694.00;;;-141.29;100.00
22025;BME280;11176;51.448;6.650;2023-01-31T06:40:21;45698.00;;;-141.29;100.00
22025;BME280;11176;51.448;6.650;2023-01-31T06:42:47;45694.00;;;-141.29;100.00
22025;BME280;11176;51.448;6.650;2023-01-31T06:45:14;45688.00;;;-141.29;100.00
22025;BME280;11176;51.448;6.650;2023-01-31T06:47:40;45688.00;;;-141.29;100.00
22025;BME280;11176;51.448;6.650;2023-01-31T06:50:08;45700.00;;;-141.29;100.00
22025;BME280;11176;51.448;6.650;2023-01-31T06:52:35;45690.00;;;-141.29;100.00
22025;BME280;11176;51.448;6.650;2023-01-31T06:55:02;45686.00;;;-141.29;100.00
22025;BME280;11176;51.448;6.650;2023-01-31T06:57:28;45694.00;;;-141.29;100.00
22025;BME280;11176;51.448;6.650;2023-01-31T06:59:56;45688.00;;;-141.29;100.00
22025;BME280;11176;51.448;6.650;2023-01-31T07:02:22;45694.00;;;-141.29;100.00
22025;BME280;11176;51.448;6.650;2023-01-31T07:04:49;45688.00;;;-141.29;100.00
22025;BME280;11176;51.448;6.650;2023-01-31T07:07:16;45704.00;;;-141.29;100.00
22025;BME280;11176;51.448;6.650;2023-01-31T07:09:43;45674.03;;;-141.29;100.00
22025;BME280;11176;51.448;6.650;2023-01-31T07:12:09;45690.00;;;-141.29;100.00
22025;BME280;11176;51.448;6.650;2023-01-31T07:14:36;45674.03;;;-141.29;100.00
22025;BME280;11176;51.448;6.650;2023-01-31T07:17:02;45674.03;;;-141.29;100.00
22025;BME280;11176;51.448;6.650;2023-01-31T07:19:29;45654.03;;;-141.29;100.00
22025;BME280;11176;51.448;6.650;2023-01-31T07:21:55;45702.00;;;-141.29;100.00
22025;BME280;11176;51.448;6.650;2023-01-31T07:24:22;45694.00;;;-141.29;100.00
22025;BME280;11176;51.448;6.650;2023-01-31T07:26:51;45706.00;;;-141.29;100.00
22025;BME280;11176;51.448;6.650;2023-01-31T07:29:18;45672.03;;;-141.29;100.00
22025;BME280;11176;51.448;6.650;2023-01-31T07:31:44;45694.00;;;-141.29;100.00
22025;BME280;11176;51.448;6.650;2023-01-31T07:34:11;45690.00;;;-141.29;100.00
22025;BME280;11176;51.448;6.650;2023-01-31T07:36:37;45710.00;;;-141.29;99.94
22025;BME280;11176;51.448;6.650;2023-01-31T07:39:04;45682.00;;;-141.29;99.45
22025;BME280;11176;51.448;6.650;2023-01-31T07:41:31;45680.03;;;-141.29;99.37
22025;BME280;11176;51.448;6.650;2023-01-31T07:43:57;45692.00;;;-141.29;99.54
22025;BME280;11176;51.448;6.650;2023-01-31T07:46:25;45684.00;;;-141.29;99.18
22025;BME280;11176;51.448;6.650;2023-01-31T07:48:51;45694.00;;;-141.29;99.14
22025;BME280;11176;51.448;6.650;2023-01-31T07:51:18;45676.03;;;-141.29;99.44
22025;BME280;11176;51.448;6.650;2023-01-31T07:53:44;45702.00;;;-141.29;99.30
22025;BME280;11176;51.448;6.650;2023-01-31T07:56:14;45662.03;;;-141.29;99.22
22025;BME280;11176;51.448;6.650;2023-01-31T07:58:42;45668.03;;;-141.29;98.72
22025;BME280;11176;51.448;6.650;2023-01-31T08:01:18;45670.03;;;-141.29;98.89
22025;BME280;11176;51.448;6.650;2023-01-31T08:04:05;45672.03;;;-141.29;98.91
22025;BME280;11176;51.448;6.650;2023-01-31T08:06:46;45676.03;;;-141.29;99.00
22025;BME280;11176;51.448;6.650;2023-01-31T08:09:13;45678.03;;;-141.29;99.24
22025;BME280;11176;51.448;6.650;2023-01-31T08:11:40;45684.00;;;-141.29;99.31
22025;BME280;11176;51.448;6.650;2023-01-31T08:14:06;45670.03;;;-141.29;99.24
22025;BME280;11176;51.448;6.650;2023-01-31T08:16:34;45690.00;;;-141.29;99.52
22025;BME280;11176;51.448;6.650;2023-01-31T08:19:02;45686.00;;;-141.29;99.55
22025;BME280;11176;51.448;6.650;2023-01-31T08:21:29;45684.00;;;-141.29;100.00
22025;BME280;11176;51.448;6.650;2023-01-31T08:23:56;45670.03;;;-141.29;100.00
22025;BME280;11176;51.448;6.650;2023-01-31T08:26:22;45706.00;;;-141.29;100.00
22025;BME280;11176;51.448;6.650;2023-01-31T08:28:50;45694.00;;;-141.29;100.00
22025;BME280;11176;51.448;6.650;2023-01-31T08:31:19;45690.00;;;-141.29;100.00
22025;BME280;11176;51.448;6.650;2023-01-31T08:33:46;45670.03;;;-141.29;100.00
22025;BME280;11176;51.448;6.650;2023-01-31T08:36:25;45694.00;;;-141.29;100.00
22025;BME280;11176;51.448;6.650;2023-01-31T08:38:52;45688.00;;;-141.29;100.00
22025;BME280;11176;51.448;6.650;2023-01-31T08:41:21;45670.03;;;-141.29;100.00
22025;BME280;11176;51.448;6.650;2023-01-31T08:43:49;45690.00;;;-141.29;100.00
22025;BME280;11176;51.448;6.650;2023-01-31T08:46:26;45680.03;;;-141.29;100.00
22025;BME280;11176;51.448;6.650;2023-01-31T08:48:54;45686.00;;;-141.29;100.00
22025;BME280;11176;51.448;6.650;2023-01-31T08:51:22;45686.00;;;-141.29;100.00
22025;BME280;11176;51.448;6.650;2023-01-31T08:53:48;45670.03;;;-141.29;100.00
22025;BME280;11176;51.448;6.650;2023-01-31T08:56:15;45682.00;;;-141.29;100.00
22025;BME280;11176;51.448;6.650;2023-01-31T08:58:43;45674.03;;;-141.29;100.00
22025;BME280;11176;51.448;6.650;2023-01-31T09:01:15;45674.03;;;-141.29;100.00
22025;BME280;11176;51.448;6.650;2023-01-31T09:03:43;45672.03;;;-141.29;100.00
22025;BME280;11176;51.448;6.650;2023-01-31T09:06:13;45650.03;;;-141.29;100.00
22025;BME280;11176;51.448;6.650;2023-01-31T09:08:40;45678.03;;;-141.29;100.00
22025;BME280;11176;51.448;6.650;2023-01-31T09:11:07;45680.03;;;-141.29;100.00
22025;BME280;11176;51.448;6.650;2023-01-31T09:13:35;45686.00;;;-141.29;100.00
22025;BME280;11176;51.448;6.650;2023-01-31T09:16:05;45680.03;;;-141.29;100.00
22025;BME280;11176;51.448;6.650;2023-01-31T09:18:36;45688.00;;;-141.29;100.00
22025;BME280;11176;51.448;6.650;2023-01-31T09:21:12;45674.03;;;-141.29;100.00
22025;BME280;11176;51.448;6.650;2023-01-31T09:23:39;45670.03;;;-141.29;100.00
22025;BME280;11176;51.448;6.650;2023-01-31T09:26:10;45680.03;;;-141.29;100.00
22025;BME280;11176;51.448;6.650;2023-01-31T09:28:37;45666.03;;;-141.29;100.00
22025;BME280;11176;51.448;6.650;2023-01-31T09:31:05;45674.03;;;-141.29;100.00
22025;BME280;11176;51.448;6.650;2023-01-31T09:33:33;45670.03;;;-141.29;100.00
22025;BME280;11176;51.448;6.650;2023-01-31T09:36:12;45672.03;;;-141.29;100.00
22025;BME280;11176;51.448;6.650;2023-01-31T09:38:39;45680.03;;;-141.29;100.00
22025;BME280;11176;51.448;6.650;2023-01-31T09:41:23;45670.03;;;-141.29;100.00
22025;BME280;11176;51.448;6.650;2023-01-31T09:43:55;45688.00;;;-141.29;100.00
22025;BME280;11176;51.448;6.650;2023-01-31T09:46:25;45662.03;;;-141.29;100.00
22025;BME280;11176;51.448;6.650;2023-01-31T09:48:58;45652.03;;;-141.29;100.00
22025;BME280;11176;51.448;6.650;2023-01-31T09:51:25;45654.03;;;-141.29;100.00
22025;BME280;11176;51.448;6.650;2023-01-31T09:53:53;45690.00;;;-141.29;100.00
22025;BME280;11176;51.448;6.650;2023-01-31T09:59:03;45664.03;;;-141.29;100.00
22025;BME280;11176;51.448;6.650;2023-01-31T10:01:55;45674.03;;;-141.29;100.00
22025;BME280;11176;51.448;6.650;2023-01-31T10:07:24;45662.03;;;-141.29;100.00
22025;BME280;11176;51.448;6.650;2023-01-31T10:10:02;45664.03;;;-141.29;100.00
22025;BME280;11176;51.448;6.650;2023-01-31T10:12:47;45654.03;;;-141.29;100.00
22025;BME280;11176;51.448;6.650;2023-01-31T10:15:24;45652.03;;;-141.29;100.00
22025;BME280;11176;51.448;6.650;2023-01-31T10:17:58;45638.06;;;-141.29;100.00
22025;BME280;11176;51.448;6.650;2023-01-31T10:20:32;45638.06;;;-141.29;100.00
22025;BME280;11176;51.448;6.650;2023-01-31T10:23:09;45626.06;;;-141.29;100.00
22025;BME280;11176;51.448;6.650;2023-01-31T10:25:48;45644.03;;;-141.29;100.00
22025;BME280;11176;51.448;6.650;2023-01-31T10:31:11;45650.03;;;-141.29;100.00
22025;BME280;11176;51.448;6.650;2023-01-31T10:33:43;45654.03;;;-141.29;100.00
22025;BME280;11176;51.448;6.650;2023-01-31T10:36:20;45650.03;;;-141.29;100.00
22025;BME280;11176;51.448;6.650;2023-01-31T10:39:07;45642.03;;;-141.29;100.00
22025;BME280;11176;51.448;6.650;2023-01-31T10:44:41;45666.03;;;-141.29;100.00
22025;BME280;11176;51.448;6.650;2023-01-31T10:47:14;45642.03;;;-141.29;100.00
22025;BME280;11176;51.448;6.650;2023-01-31T10:49:46;45630.06;;;-141.29;100.00
22025;BME280;11176;51.448;6.650;2023-01-31T10:55:34;45630.06;;;-141.29;100.00
22025;BME280;11176;51.448;6.650;2023-01-31T10:58:11;45624.06;;;-141.29;99.42
22025;BME280;11176;51.448;6.650;2023-01-31T11:00:38;45640.03;;;-141.29;99.38
22025;BME280;11176;51.448;6.650;2023-01-31T11:03:05;45630.06;;;-141.29;99.47
22025;BME280;11176;51.448;6.650;2023-01-31T11:05:34;45626.06;;;-141.29;100.00
22025;BME280;11176;51.448;6.650;2023-01-31T11:08:18;45618.06;;;-141.29;99.88
22025;BME280;11176;51.448;6.650;2023-01-31T11:10:51;45648.03;;;-141.29;99.85
22025;BME280;11176;51.448;6.650;2023-01-31T11:13:18;45638.06;;;-141.29;99.78
22025;BME280;11176;51.448;6.650;2023-01-31T11:15:45;45642.03;;;-141.29;99.38
22025;BME280;11176;51.448;6.650;2023-01-31T11:18:23;45654.03;;;-141.29;99.84
22025;BME280;11176;51.448;6.650;2023-01-31T11:20:51;45622.06;;;-141.29;100.00
22025;BME280;11176;51.448;6.650;2023-01-31T11:23:22;45628.06;;;-141.29;99.79
22025;BME280;11176;51.448;6.650;2023-01-31T11:25:52;45634.06;;;-141.29;100.00
22025;BME280;11176;51.448;6.650;2023-01-31T11:28:39;45654.03;;;-141.29;100.00
22025;BME280;11176;51.448;6.650;2023-01-31T11:31:16;45634.06;;;-141.29;100.00
22025;BME280;11176;51.448;6.650;2023-01-31T11:34:17;45658.03;;;-141.29;100.00
22025;BME280;11176;51.448;6.650;2023-01-31T11:36:44;45634.06;;;-141.29;100.00
22025;BME280;11176;51.448;6.650;2023-01-31T11:39:40;45642.03;;;-141.29;100.00
22025;BME280;11176;51.448;6.650;2023-01-31T11:42:14;45622.06;;;-141.29;100.00
22025;BME280;11176;51.448;6.650;2023-01-31T11:47:50;45658.03;;;-141.29;100.00
22025;BME280;11176;51.448;6.650;2023-01-31T11:50:32;45640.03;;;-141.29;100.00
22025;BME280;11176;51.448;6.650;2023-01-31T11:53:02;45620.06;;;-141.29;100.00
22025;BME280;11176;51.448;6.650;2023-01-31T11:55:38;45626.06;;;-141.29;100.00
22025;BME280;11176;51.448;6.650;2023-01-31T11:58:32;45638.06;;;-141.29;100.00
22025;BME280;11176;51.448;6.650;2023-01-31T12:01:20;45628.06;;;-141.29;100.00
22025;BME280;11176;51.448;6.650;2023-01-31T12:03:51;45630.06;;;-141.29;100.00
22025;BME280;11176;51.448;6.650;2023-01-31T12:06:37;45618.06;;;-141.29;100.00
22025;BME280;11176;51.448;6.650;2023-01-31T12:09:19;45638.06;;;-141.29;100.00
22025;BME280;11176;51.448;6.650;2023-01-31T12:12:19;45634.06;;;-141.29;100.00
22025;BME280;11176;51.448;6.650;2023-01-31T12:14:47;45612.06;;;-141.29;100.00
22025;BME280;11176;51.448;6.650;2023-01-31T12:17:15;45650.03;;;-141.29;100.00
22025;BME280;11176;51.448;6.650;2023-01-31T12:26:10;45626.06;;;-141.29;100.00
22025;BME280;11176;51.448;6.650;2023-01-31T12:29:11;45606.06;;;-141.29;100.00
22025;BME280;11176;51.448;6.650;2023-01-31T12:31:56;45634.06;;;-141.29;100.00
22025;BME280;11176;51.448;6.650;2023-01-31T12:43:06;45630.06;;;-141.29;100.00
22025;BME280;11176;51.448;6.650;2023-01-31T12:54:38;45634.06;;;-141.29;100.00
22025;BME280;11176;51.448;6.650;2023-01-31T12:57:27;45616.06;;;-141.29;100.00
22025;BME280;11176;51.448;6.650;2023-01-31T13:00:13;45596.06;;;-141.29;100.00
22025;BME280;11176;51.448;6.650;2023-01-31T13:02:53;45612.06;;;-141.29;100.00
22025;BME280;11176;51.448;6.650;2023-01-31T13:08:21;45620.06;;;-141.29;100.00
22025;BME280;11176;51.448;6.650;2023-01-31T13:11:00;45618.06;;;-141.29;100.00
22025;BME280;11176;51.448;6.650;2023-01-31T13:18:45;45636.06;;;-141.29;100.00
22025;BME280;11176;51.448;6.650;2023-01-31T13:21:17;45610.06;;;-141.29;100.00
22025;BME280;11176;51.448;6.650;2023-01-31T13:23:53;45654.03;;;-141.29;100.00
22025;BME280;11176;51.448;6.650;2023-01-31T13:26:24;45630.06;;;-141.29;100.00
22025;BME280;11176;51.448;6.650;2023-01-31T13:29:00;45628.06;;;-141.29;100.00
22025;BME280;11176;51.448;6.650;2023-01-31T13:31:59;45610.06;;;-141.29;100.00
22025;BME280;11176;51.448;6.650;2023-01-31T13:34:39;45618.06;;;-141.29;100.00
22025;BME280;11176;51.448;6.650;2023-01-31T13:37:13;45618.06;;;-141.29;100.00
22025;BME280;11176;51.448;6.650;2023-01-31T13:39:52;45616.06;;;-141.29;100.00
22025;BME280;11176;51.448;6.650;2023-01-31T13:42:20;45622.06;;;-141.29;100.00
22025;BME280;11176;51.448;6.650;2023-01-31T13:44:47;45634.06;;;-141.29;100.00
22025;BME280;11176;51.448;6.650;2023-01-31T13:47:20;45618.06;;;-141.29;100.00
22025;BME280;11176;51.448;6.650;2023-01-31T13:49:58;45626.06;;;-141.29;100.00
22025;BME280;11176;51.448;6.650;2023-01-31T13:52:34;45626.06;;;-141.29;100.00
22025;BME280;11176;51.448;6.650;2023-01-31T13:55:14;45626.06;;;-141.29;100.00
22025;BME280;11176;51.448;6.650;2023-01-31T13:57:50;45618.06;;;-141.29;100.00
22025;BME280;11176;51.448;6.650;2023-01-31T14:03:10;45614.06;;;-141.29;100.00
22025;BME280;11176;51.448;6.650;2023-01-31T14:16:40;45622.06;;;-141.29;100.00
22025;BME280;11176;51.448;6.650;2023-01-31T14:24:54;45650.03;;;-141.29;100.00
22025;BME280;11176;51.448;6.650;2023-01-31T14:32:39;45642.03;;;-141.29;100.00
22025;BME280;11176;51.448;6.650;2023-01-31T14:38:06;45604.06;;;-141.29;100.00
22025;BME280;11176;51.448;6.650;2023-01-31T14:43:27;45610.06;;;-141.29;100.00
22025;BME280;11176;51.448;6.650;2023-01-31T14:52:33;45616.06;;;-141.29;100.00
22025;BME280;11176;51.448;6.650;2023-01-31T14:55:29;45626.06;;;-141.29;100.00